TimeCDT,TemperatureF,Dew PointF,Humidity,Sea Level PressureIn,VisibilityMPH,Wind Direction,Wind SpeedMPH,Gust SpeedMPH,PrecipitationIn,Events,Conditions,WindDirDegrees,DateUTC
12:09 AM,24.8,19.4,80,29.92,10.0,Calm,Calm,-,N/A,,Overcast,0,2014-03-19 05:09:00
12:29 AM,24.8,19.4,80,29.91,10.0,Calm,Calm,-,N/A,,Overcast,0,2014-03-19 05:29:00
12:49 AM,24.8,19.4,80,29.91,10.0,Calm,Calm,-,N/A,,Overcast,0,2014-03-19 05:49:00
1:09 AM,24.8,19.4,80,29.91,10.0,Calm,Calm,-,N/A,,Overcast,0,2014-03-19 06:09:00
1:29 AM,24.8,19.4,80,29.90,10.0,Calm,Calm,-,N/A,,Overcast,0,2014-03-19 06:29:00
1:49 AM,24.8,19.4,80,29.90,10.0,Calm,Calm,-,N/A,,Overcast,0,2014-03-19 06:49:00
2:09 AM,24.8,19.4,80,29.90,10.0,Calm,Calm,-,N/A,,Overcast,0,2014-03-19 07:09:00
2:29 AM,23.0,19.4,86,29.90,10.0,Calm,Calm,-,N/A,,Overcast,0,2014-03-19 07:29:00
2:49 AM,23.0,19.4,86,29.90,10.0,Calm,Calm,-,N/A,,Overcast,0,2014-03-19 07:49:00
3:09 AM,23.0,17.6,80,29.89,10.0,Calm,Calm,-,N/A,,Overcast,0,2014-03-19 08:09:00
3:29 AM,23.0,17.6,80,29.88,10.0,NNE,3.5,-,N/A,,Overcast,30,2014-03-19 08:29:00
3:49 AM,23.0,17.6,80,29.88,10.0,Calm,Calm,-,N/A,,Overcast,0,2014-03-19 08:49:00
4:09 AM,21.2,17.6,86,29.87,10.0,Calm,Calm,-,N/A,,Overcast,0,2014-03-19 09:09:00
4:29 AM,21.2,17.6,86,29.87,10.0,Calm,Calm,-,N/A,,Overcast,0,2014-03-19 09:29:00
4:49 AM,21.2,17.6,86,29.87,10.0,Calm,Calm,-,N/A,,Overcast,0,2014-03-19 09:49:00
5:09 AM,21.2,17.6,86,29.87,10.0,Calm,Calm,-,N/A,,Overcast,0,2014-03-19 10:09:00
5:29 AM,21.2,17.6,86,29.87,10.0,Calm,Calm,-,N/A,,Overcast,0,2014-03-19 10:29:00
5:49 AM,21.2,17.6,86,29.88,10.0,Calm,Calm,-,N/A,,Overcast,0,2014-03-19 10:49:00
6:09 AM,21.2,17.6,86,29.87,10.0,Calm,Calm,-,N/A,,Overcast,0,2014-03-19 11:09:00
6:29 AM,21.2,17.6,86,29.88,10.0,NNW,3.5,-,N/A,Snow,Light Snow,330,2014-03-19 11:29:00
6:49 AM,21.2,17.6,86,29.87,10.0,Calm,Calm,-,N/A,,Overcast,0,2014-03-19 11:49:00
7:09 AM,21.2,17.6,86,29.87,10.0,NNW,3.5,-,N/A,,Overcast,340,2014-03-19 12:09:00
7:29 AM,21.2,17.6,86,29.87,10.0,Calm,Calm,-,N/A,Snow,Light Snow,0,2014-03-19 12:29:00
7:49 AM,21.2,17.6,86,29.87,10.0,NNW,3.5,-,N/A,,Overcast,330,2014-03-19 12:49:00
8:09 AM,21.2,19.4,93,29.88,7.0,Calm,Calm,-,N/A,Snow,Light Snow,0,2014-03-19 13:09:00
8:29 AM,23.0,19.4,86,29.88,7.0,NNW,3.5,-,N/A,Snow,Light Snow,330,2014-03-19 13:29:00
8:49 AM,23.0,19.4,86,29.88,5.0,NNW,3.5,-,N/A,Snow,Light Snow,340,2014-03-19 13:49:00
9:09 AM,23.0,19.4,86,29.88,3.0,NNW,3.5,-,N/A,Snow,Light Snow,330,2014-03-19 14:09:00
9:29 AM,24.8,19.4,80,29.88,3.0,NNW,5.8,-,N/A,Snow,Light Snow,340,2014-03-19 14:29:00
9:49 AM,24.8,21.2,86,29.88,4.0,North,3.5,-,N/A,Snow,Light Snow,360,2014-03-19 14:49:00
10:09 AM,24.8,21.2,86,29.88,4.0,NNW,3.5,-,N/A,Snow,Light Snow,330,2014-03-19 15:09:00
10:29 AM,26.6,21.2,80,29.87,4.0,NNW,5.8,-,N/A,Snow,Light Snow,330,2014-03-19 15:29:00
10:49 AM,26.6,21.2,80,29.88,3.0,NNW,3.5,-,N/A,Snow,Light Snow,340,2014-03-19 15:49:00
11:09 AM,26.6,21.2,80,29.88,4.0,NW,5.8,-,N/A,Snow,Light Snow,320,2014-03-19 16:09:00
11:29 AM,26.6,21.2,80,29.88,5.0,NNW,5.8,-,N/A,Snow,Light Snow,330,2014-03-19 16:29:00
11:49 AM,28.4,21.2,74,29.87,5.0,North,4.6,-,N/A,Snow,Light Snow,360,2014-03-19 16:49:00
12:09 PM,28.4,23.0,80,29.87,5.0,Calm,Calm,-,N/A,Snow,Light Snow,0,2014-03-19 17:09:00
12:29 PM,30.2,24.8,80,29.87,7.0,NNW,5.8,-,N/A,Snow,Light Snow,340,2014-03-19 17:29:00
12:49 PM,30.2,21.2,69,29.87,10.0,NNW,6.9,-,N/A,,Overcast,340,2014-03-19 17:49:00
1:09 PM,32.0,23.0,69,29.87,10.0,NNW,6.9,-,N/A,,Overcast,340,2014-03-19 18:09:00
1:29 PM,33.8,23.0,65,29.86,10.0,NW,10.4,-,N/A,,Overcast,310,2014-03-19 18:29:00
1:49 PM,33.8,21.2,60,29.86,10.0,North,5.8,-,N/A,,Overcast,350,2014-03-19 18:49:00
2:09 PM,33.8,21.2,60,29.85,10.0,NNW,8.1,-,N/A,,Overcast,330,2014-03-19 19:09:00
2:29 PM,33.8,19.4,56,29.85,10.0,North,6.9,-,N/A,,Overcast,360,2014-03-19 19:29:00
2:49 PM,33.8,19.4,56,29.85,10.0,NW,6.9,-,N/A,,Overcast,320,2014-03-19 19:49:00
3:09 PM,33.8,19.4,56,29.85,10.0,NNW,6.9,-,N/A,,Overcast,330,2014-03-19 20:09:00
3:29 PM,32.0,19.4,60,29.84,10.0,NNW,5.8,-,N/A,,Overcast,340,2014-03-19 20:29:00
3:49 PM,32.0,19.4,60,29.85,10.0,NNW,6.9,-,N/A,,Overcast,330,2014-03-19 20:49:00
4:09 PM,30.2,19.4,64,29.85,10.0,NW,9.2,-,N/A,,Overcast,320,2014-03-19 21:09:00
4:29 PM,30.2,19.4,64,29.85,10.0,WNW,4.6,-,N/A,,Overcast,300,2014-03-19 21:29:00
4:49 PM,30.2,21.2,69,29.86,10.0,NW,4.6,-,N/A,Snow,Light Snow,310,2014-03-19 21:49:00
5:09 PM,30.2,21.2,69,29.86,7.0,WNW,4.6,-,N/A,Snow,Light Snow,300,2014-03-19 22:09:00
5:29 PM,30.2,21.2,69,29.87,10.0,NW,6.9,-,N/A,Snow,Light Snow,310,2014-03-19 22:29:00
5:49 PM,28.4,21.2,74,29.87,10.0,NW,8.1,-,N/A,,Overcast,320,2014-03-19 22:49:00
6:09 PM,28.4,21.2,74,29.88,10.0,Calm,Calm,-,N/A,Snow,Light Snow,0,2014-03-19 23:09:00
6:29 PM,28.4,21.2,74,29.88,10.0,NNW,3.5,-,N/A,,Overcast,330,2014-03-19 23:29:00
6:49 PM,28.4,21.2,74,29.88,3.0,NW,4.6,-,N/A,Snow,Light Snow,320,2014-03-19 23:49:00
7:09 PM,28.4,23.0,80,29.89,5.0,Calm,Calm,-,N/A,Snow,Light Snow,0,2014-03-20 00:09:00
7:29 PM,26.6,23.0,86,29.90,5.0,Calm,Calm,-,N/A,Snow,Light Snow,0,2014-03-20 00:29:00
7:49 PM,26.6,21.2,80,29.90,5.0,West,3.5,-,N/A,Snow,Light Snow,280,2014-03-20 00:49:00
8:09 PM,26.6,21.2,80,29.91,5.0,West,3.5,-,N/A,Snow,Light Snow,270,2014-03-20 01:09:00
8:29 PM,26.6,21.2,80,29.91,5.0,Calm,Calm,-,N/A,Snow,Light Snow,0,2014-03-20 01:29:00
8:49 PM,26.6,21.2,80,29.91,10.0,Calm,Calm,-,N/A,Snow,Light Snow,0,2014-03-20 01:49:00
9:09 PM,26.6,21.2,80,29.91,10.0,Calm,Calm,-,N/A,,Overcast,0,2014-03-20 02:09:00
9:29 PM,26.6,21.2,80,29.91,10.0,WNW,3.5,-,N/A,,Overcast,290,2014-03-20 02:29:00
9:49 PM,26.6,21.2,80,29.91,10.0,NNW,4.6,-,N/A,,Overcast,330,2014-03-20 02:49:00
10:09 PM,24.8,19.4,80,29.91,10.0,Calm,Calm,-,N/A,,Overcast,0,2014-03-20 03:09:00
10:29 PM,24.8,19.4,80,29.92,10.0,Calm,Calm,-,N/A,,Overcast,0,2014-03-20 03:29:00
10:49 PM,24.8,19.4,80,29.92,10.0,Calm,Calm,-,N/A,,Overcast,0,2014-03-20 03:49:00
11:09 PM,24.8,19.4,80,29.92,10.0,Calm,Calm,-,N/A,,Overcast,0,2014-03-20 04:09:00
11:29 PM,24.8,19.4,80,29.92,10.0,Calm,Calm,-,N/A,,Overcast,0,2014-03-20 04:29:00
11:49 PM,24.8,19.4,80,29.93,10.0,Calm,Calm,-,N/A,,Overcast,0,2014-03-20 04:49:00